YOBR weather

Old Bar Heritage Airport
New South Wales, Australia

Public forecast

Using degrees Celsius for public forecast. Weather courtesy of forecast.io.

METAR (pilot weather report)

Closest report is Taree Airport, 6.0 nm (11.2 km) NW. Retrieved 2019/04/19 03:00 UTC (57 minutes ago):

YTRE 190300Z AUTO 11009KT 9999 // SCT025 SCT044 24/17 Q1025

TAF (pilot weather forecast)

Forecast is more than 6 hours old.

Closest forecast is Taree Airport, 6.0 nm (11.2 km) NW. Retrieved 2019/04/18 20:33 UTC (7 hours ago):

TAF YTRE 181902Z 1820/1908 22005KT 9999 -SHRA BKN030 FM190200 12008KT 9999 -SHRA SCT030 INTER 1820/1902 4000 SHRA BKN015